createdAt,value
2023-03-15T00:01:18.859Z,5.95
2023-03-15T00:03:50.920Z,4.45
2023-03-15T00:06:23.114Z,5.53
2023-03-15T00:08:55.115Z,4.90
2023-03-15T00:11:27.234Z,3.95
2023-03-15T00:13:59.419Z,4.05
2023-03-15T00:16:32.995Z,2.65
2023-03-15T00:19:05.207Z,3.85
2023-03-15T00:21:37.492Z,3.65
2023-03-15T00:24:11.684Z,2.60
2023-03-15T00:26:43.736Z,2.03
2023-03-15T00:29:16.029Z,4.40
2023-03-15T00:31:48.345Z,1.10
2023-03-15T00:34:24.627Z,2.60
2023-03-15T00:36:57.844Z,1.02
2023-03-15T00:39:29.996Z,4.40
2023-03-15T00:42:02.137Z,3.17
2023-03-15T00:44:34.265Z,4.80
2023-03-15T00:47:06.345Z,5.00
2023-03-15T00:49:39.154Z,6.15
2023-03-15T00:54:55.120Z,3.30
2023-03-15T00:57:27.614Z,3.45
2023-03-15T01:00:00.051Z,4.53
2023-03-15T01:02:32.700Z,6.22
2023-03-15T01:05:07.087Z,8.88
2023-03-15T01:07:39.326Z,8.05
2023-03-15T01:10:13.243Z,8.70
2023-03-15T01:12:45.412Z,6.53
2023-03-15T01:15:17.725Z,6.68
2023-03-15T01:17:49.976Z,4.25
2023-03-15T01:20:22.809Z,4.53
2023-03-15T01:22:54.919Z,4.95
2023-03-15T01:25:27.081Z,2.78
2023-03-15T01:27:59.342Z,4.03
2023-03-15T01:30:31.471Z,2.53
2023-03-15T01:33:03.558Z,4.88
2023-03-15T01:35:35.882Z,2.13
2023-03-15T01:38:08.170Z,2.30
2023-03-15T01:40:46.236Z,3.50
2023-03-15T01:43:25.221Z,2.72
2023-03-15T01:45:59.705Z,4.55
2023-03-15T01:48:44.914Z,2.38
2023-03-15T01:51:27.200Z,8.80
2023-03-15T01:54:16.954Z,2.67
2023-03-15T01:57:06.122Z,2.72
2023-03-15T02:00:02.512Z,2.30
2023-03-15T02:02:53.406Z,2.97
2023-03-15T02:05:34.155Z,3.45
2023-03-15T02:08:09.653Z,2.55
2023-03-15T02:10:48.177Z,4.40
2023-03-15T02:13:23.578Z,3.50
2023-03-15T02:15:57.565Z,5.22
2023-03-15T02:18:37.778Z,3.85
2023-03-15T02:21:22.271Z,2.42
2023-03-15T02:24:26.096Z,2.92
2023-03-15T02:26:58.652Z,3.97
2023-03-15T02:29:31.045Z,3.30
2023-03-15T02:32:04.803Z,4.05
2023-03-15T02:34:36.924Z,3.80
2023-03-15T02:37:09.595Z,3.90
2023-03-15T02:39:41.636Z,3.83
2023-03-15T02:42:14.232Z,3.83
2023-03-15T02:44:48.692Z,4.10
2023-03-15T02:47:33.028Z,4.65
2023-03-15T02:50:08.000Z,4.95
2023-03-15T02:52:40.510Z,3.80
2023-03-15T02:55:12.788Z,3.70
2023-03-15T02:57:45.219Z,6.13
2023-03-15T03:00:17.617Z,5.57
2023-03-15T03:02:49.835Z,4.97
2023-03-15T03:05:22.358Z,6.40
2023-03-15T03:07:55.241Z,5.78
2023-03-15T03:10:27.424Z,5.68
2023-03-15T03:13:02.982Z,5.25
2023-03-15T03:15:39.001Z,6.22
2023-03-15T03:18:11.166Z,5.90
2023-03-15T03:20:46.188Z,10.02
2023-03-15T03:23:18.313Z,4.65
2023-03-15T03:25:50.825Z,6.90
2023-03-15T03:28:28.039Z,4.85
2023-03-15T03:31:00.795Z,8.43
2023-03-15T03:33:33.766Z,14.55
2023-03-15T03:36:06.506Z,7.90
2023-03-15T03:38:43.579Z,16.57
2023-03-15T03:41:16.042Z,9.35
2023-03-15T03:43:48.321Z,5.70
2023-03-15T03:46:23.702Z,6.50
2023-03-15T03:48:58.697Z,7.93
2023-03-15T03:51:34.446Z,8.43
2023-03-15T03:54:06.552Z,7.35
2023-03-15T03:56:39.810Z,11.25
2023-03-15T03:59:11.901Z,7.43
2023-03-15T04:01:54.294Z,6.60
2023-03-15T04:04:26.517Z,6.75
2023-03-15T04:06:59.403Z,11.57
2023-03-15T04:09:37.895Z,11.02
2023-03-15T04:14:46.016Z,5.47
2023-03-15T04:17:19.929Z,8.88
2023-03-15T04:19:51.985Z,9.10
2023-03-15T04:22:30.095Z,10.48
2023-03-15T04:25:02.846Z,6.28
2023-03-15T04:27:58.712Z,8.55
2023-03-15T04:30:51.386Z,7.43
2023-03-15T04:33:38.910Z,8.70
2023-03-15T04:36:24.026Z,9.35
2023-03-15T04:39:21.321Z,7.80
2023-03-15T04:42:02.832Z,8.68
2023-03-15T04:44:44.808Z,6.50
2023-03-15T04:50:46.095Z,8.52
2023-03-15T04:53:26.488Z,5.60
2023-03-15T04:56:09.525Z,7.28
2023-03-15T04:59:17.293Z,11.18
2023-03-15T05:02:18.257Z,6.07
2023-03-15T05:05:26.188Z,10.77
2023-03-15T05:08:06.109Z,10.57
2023-03-15T05:11:07.236Z,17.40
2023-03-15T05:13:53.518Z,10.45
2023-03-15T05:16:56.043Z,11.88
2023-03-15T05:19:46.246Z,14.95
2023-03-15T05:22:38.031Z,13.15
2023-03-15T05:25:16.166Z,10.23
2023-03-15T05:28:06.837Z,12.55
2023-03-15T05:30:47.025Z,14.23
2023-03-15T05:33:33.488Z,14.57
2023-03-15T05:36:35.010Z,19.45
2023-03-15T05:39:19.703Z,18.60
2023-03-15T05:42:08.623Z,15.50
2023-03-15T05:45:19.201Z,17.65
2023-03-15T05:48:00.481Z,17.88
2023-03-15T05:50:58.780Z,13.85
2023-03-15T05:53:49.212Z,23.52
2023-03-15T05:56:34.893Z,16.80
2023-03-15T05:59:24.001Z,12.77
2023-03-15T06:02:12.484Z,11.70
2023-03-15T06:04:52.347Z,13.60
2023-03-15T06:07:28.485Z,15.85
2023-03-15T06:10:00.944Z,15.40
2023-03-15T06:12:33.274Z,15.80
2023-03-15T06:15:07.299Z,15.65
2023-03-15T06:17:39.905Z,12.45
2023-03-15T06:20:13.227Z,17.50
2023-03-15T06:22:45.984Z,9.90
2023-03-15T06:25:31.851Z,15.10
2023-03-15T06:28:04.066Z,12.68
2023-03-15T06:30:37.284Z,22.38
2023-03-15T06:33:10.117Z,19.15
2023-03-15T06:35:42.906Z,12.13
2023-03-15T06:38:15.412Z,18.80
2023-03-15T06:40:47.713Z,13.68
2023-03-15T06:43:19.874Z,21.10
2023-03-15T06:45:53.923Z,16.47
2023-03-15T06:48:27.612Z,15.68
2023-03-15T06:51:00.200Z,13.15
2023-03-15T06:53:32.405Z,18.38
2023-03-15T06:56:05.011Z,18.88
2023-03-15T06:58:37.105Z,13.07
2023-03-15T07:01:14.034Z,16.92
2023-03-15T07:03:46.202Z,19.35
2023-03-15T07:06:18.239Z,14.15
2023-03-15T07:08:50.292Z,19.75
2023-03-15T07:11:22.471Z,17.10
2023-03-15T07:13:55.153Z,21.13
2023-03-15T07:16:27.938Z,21.48
2023-03-15T07:19:00.824Z,23.23
2023-03-15T07:21:33.212Z,21.90
2023-03-15T07:24:05.726Z,20.95
2023-03-15T07:26:38.030Z,20.52
2023-03-15T07:29:10.419Z,18.40
2023-03-15T07:31:42.771Z,22.38
2023-03-15T07:34:14.803Z,18.60
2023-03-15T07:36:47.040Z,21.27
2023-03-15T07:39:19.378Z,19.52
2023-03-15T07:41:53.411Z,17.85
2023-03-15T07:44:29.769Z,18.33
2023-03-15T07:47:01.823Z,18.48
2023-03-15T07:49:34.734Z,17.27
2023-03-15T07:52:07.279Z,19.17
2023-03-15T07:54:39.588Z,23.25
2023-03-15T07:57:11.868Z,22.05
2023-03-15T07:59:44.846Z,22.15
2023-03-15T08:02:16.931Z,22.77
2023-03-15T08:04:51.218Z,18.05
2023-03-15T08:07:23.293Z,17.42
2023-03-15T08:09:58.011Z,20.85
2023-03-15T08:12:31.030Z,21.30
2023-03-15T08:15:03.293Z,21.15
2023-03-15T08:17:35.548Z,15.77
2023-03-15T08:20:14.585Z,28.85
2023-03-15T08:22:49.015Z,26.63
2023-03-15T08:25:23.979Z,21.63
2023-03-15T08:27:56.297Z,18.08
2023-03-15T08:30:28.607Z,16.45
2023-03-15T08:33:01.238Z,19.23
2023-03-15T08:35:34.470Z,16.17
2023-03-15T08:38:07.340Z,22.90
2023-03-15T08:40:41.048Z,18.02
2023-03-15T08:43:13.086Z,16.08
2023-03-15T08:46:00.250Z,19.48
2023-03-15T08:48:33.016Z,15.77
2023-03-15T08:51:07.057Z,13.45
2023-03-15T08:53:40.010Z,19.83
2023-03-15T08:56:12.202Z,17.23
2023-03-15T08:58:44.990Z,16.67
2023-03-15T09:01:17.243Z,15.10
2023-03-15T09:03:51.053Z,16.25
2023-03-15T09:06:23.101Z,16.00
2023-03-15T09:08:55.636Z,9.90
2023-03-15T09:11:27.679Z,16.10
2023-03-15T09:14:00.414Z,10.95
2023-03-15T09:16:32.791Z,14.23
2023-03-15T09:19:05.355Z,14.57
2023-03-15T09:21:37.532Z,13.03
2023-03-15T09:24:09.635Z,11.07
2023-03-15T09:26:41.842Z,17.95
2023-03-15T09:29:14.247Z,13.07
2023-03-15T09:31:46.329Z,12.73
2023-03-15T09:34:18.407Z,17.83
2023-03-15T09:36:53.178Z,15.60
2023-03-15T09:39:25.844Z,12.73
2023-03-15T09:42:01.262Z,15.23
2023-03-15T09:44:58.320Z,17.33
2023-03-15T09:48:00.328Z,15.38
2023-03-15T09:50:49.897Z,18.20
2023-03-15T09:53:34.575Z,9.63
2023-03-15T09:56:36.748Z,13.13
2023-03-15T09:59:10.816Z,13.55
2023-03-15T10:01:43.850Z,15.43
2023-03-15T10:04:30.035Z,16.02
2023-03-15T10:07:04.101Z,16.38
2023-03-15T10:09:36.134Z,12.32
2023-03-15T10:12:41.685Z,12.02
2023-03-15T10:15:21.440Z,13.48
2023-03-15T10:18:00.190Z,11.90
2023-03-15T10:20:45.433Z,14.20
2023-03-15T10:23:29.904Z,15.70
2023-03-15T10:26:06.353Z,14.85
2023-03-15T10:28:39.527Z,13.23
2023-03-15T10:31:22.593Z,10.60
2023-03-15T10:34:01.626Z,12.73
2023-03-15T10:36:33.881Z,11.70
2023-03-15T10:39:05.982Z,9.65
2023-03-15T10:41:39.717Z,9.10
2023-03-15T10:44:25.027Z,8.85
2023-03-15T10:47:21.599Z,15.10
2023-03-15T10:49:59.818Z,11.05
2023-03-15T10:52:36.996Z,10.45
2023-03-15T10:55:26.123Z,14.85
2023-03-15T10:58:02.671Z,9.70
2023-03-15T11:00:36.834Z,13.60
2023-03-15T11:03:21.775Z,11.68
2023-03-15T11:05:57.196Z,11.75
2023-03-15T11:08:41.283Z,9.38
2023-03-15T11:11:13.335Z,9.95
2023-03-15T11:14:00.651Z,12.35
2023-03-15T11:16:38.176Z,15.13
2023-03-15T11:19:18.087Z,9.23
2023-03-15T11:21:51.499Z,8.10
2023-03-15T11:24:31.247Z,7.82
2023-03-15T11:27:11.250Z,7.97
2023-03-15T11:29:52.914Z,4.85
2023-03-15T11:32:27.846Z,7.78
2023-03-15T11:35:07.868Z,11.05
2023-03-15T11:37:53.810Z,10.20
2023-03-15T11:40:38.741Z,7.03
2023-03-15T11:43:16.453Z,8.85
2023-03-15T11:45:58.046Z,5.13
2023-03-15T11:49:13.471Z,7.90
2023-03-15T11:51:45.848Z,5.65
2023-03-15T11:54:21.152Z,5.32
2023-03-15T11:57:04.719Z,5.80
2023-03-15T11:59:47.241Z,9.50
2023-03-15T12:02:25.216Z,14.60
2023-03-15T12:05:09.258Z,12.90
2023-03-15T12:08:00.767Z,14.25
2023-03-15T12:10:34.909Z,6.05
2023-03-15T12:13:18.096Z,4.18
2023-03-15T12:15:51.318Z,3.53
2023-03-15T12:21:21.433Z,4.45
2023-03-15T12:24:05.370Z,8.35
2023-03-15T12:27:04.803Z,4.88
2023-03-15T12:29:38.351Z,3.85
2023-03-15T12:32:16.682Z,6.18
2023-03-15T12:34:53.395Z,6.40
2023-03-15T12:37:42.443Z,4.03
2023-03-15T12:40:20.661Z,3.78
2023-03-15T12:42:57.432Z,3.88
2023-03-15T12:45:37.485Z,3.90
2023-03-15T12:48:13.023Z,7.57
2023-03-15T12:50:45.768Z,4.80
2023-03-15T12:53:37.201Z,4.25
2023-03-15T12:56:36.088Z,5.95
2023-03-15T12:59:29.436Z,7.07
2023-03-15T13:02:03.911Z,5.33
2023-03-15T13:04:36.808Z,4.38
2023-03-15T13:07:48.926Z,5.80
2023-03-15T13:10:53.365Z,10.00
2023-03-15T13:13:33.838Z,13.68
2023-03-15T13:16:24.741Z,12.70
2023-03-15T13:19:12.175Z,8.43
2023-03-15T13:21:52.975Z,2.58
2023-03-15T13:24:43.895Z,4.45
2023-03-15T13:27:38.341Z,5.10
2023-03-15T13:30:48.906Z,4.13
2023-03-15T13:33:28.343Z,2.35
2023-03-15T13:36:01.829Z,7.32
2023-03-15T13:38:43.532Z,4.63
2023-03-15T13:41:31.285Z,2.75
2023-03-15T13:44:13.857Z,7.63
2023-03-15T13:46:49.358Z,3.10
2023-03-15T13:49:22.032Z,3.78
2023-03-15T13:51:54.383Z,8.13
2023-03-15T13:54:31.932Z,6.30
2023-03-15T13:57:13.632Z,7.32
2023-03-15T13:59:48.021Z,3.80
2023-03-15T14:02:48.126Z,8.43
2023-03-15T14:05:28.987Z,4.40
2023-03-15T14:08:04.139Z,5.75
2023-03-15T14:10:38.743Z,3.58
2023-03-15T14:13:27.649Z,3.88
2023-03-15T14:16:08.226Z,3.45
2023-03-15T14:18:41.732Z,4.15
2023-03-15T14:23:51.792Z,5.85
2023-03-15T14:26:28.247Z,3.67
2023-03-15T14:29:16.740Z,3.03
2023-03-15T14:31:51.619Z,4.43
2023-03-15T14:34:35.070Z,1.95
2023-03-15T14:37:25.140Z,2.97
2023-03-15T14:40:09.196Z,4.15
2023-03-15T14:42:41.633Z,5.35
2023-03-15T14:45:16.236Z,7.53
2023-03-15T14:47:58.546Z,4.50
2023-03-15T14:50:35.416Z,4.68
2023-03-15T14:53:10.080Z,5.43
2023-03-15T14:55:42.566Z,2.35
2023-03-15T14:58:17.522Z,5.07
2023-03-15T15:00:53.960Z,3.92
2023-03-15T15:03:46.406Z,4.78
2023-03-15T15:06:18.528Z,3.05
2023-03-15T15:08:55.587Z,4.40
2023-03-15T15:11:27.932Z,3.75
2023-03-15T15:14:00.191Z,3.25
2023-03-15T15:16:32.769Z,3.25
2023-03-15T15:19:06.173Z,2.67
2023-03-15T15:21:39.030Z,7.18
2023-03-15T15:24:20.287Z,2.72
2023-03-15T15:26:53.340Z,5.47
2023-03-15T15:29:25.396Z,2.88
2023-03-15T15:31:57.978Z,2.67
2023-03-15T15:34:30.310Z,1.87
2023-03-15T15:37:02.390Z,3.20
2023-03-15T15:39:34.514Z,3.30
2023-03-15T15:42:09.223Z,5.38
2023-03-15T15:44:41.943Z,5.05
2023-03-15T15:47:14.422Z,2.77
2023-03-15T15:49:46.703Z,7.45
2023-03-15T15:52:18.801Z,5.18
2023-03-15T15:54:50.924Z,5.00
2023-03-15T15:57:26.689Z,6.40
2023-03-15T15:59:58.730Z,5.85
2023-03-15T16:02:30.798Z,6.25
2023-03-15T16:05:03.079Z,4.20
2023-03-15T16:07:35.861Z,4.30
2023-03-15T16:10:16.210Z,4.97
2023-03-15T16:12:49.663Z,5.93
2023-03-15T16:15:22.125Z,6.80
2023-03-15T16:17:54.258Z,3.97
2023-03-15T16:20:26.300Z,5.00
2023-03-15T16:23:00.581Z,3.78
2023-03-15T16:25:36.084Z,7.38
2023-03-15T16:28:11.484Z,14.57
2023-03-15T16:30:46.542Z,7.43
2023-03-15T16:33:21.224Z,7.72
2023-03-15T16:35:53.699Z,5.05
2023-03-15T16:38:30.091Z,6.78
2023-03-15T16:41:02.474Z,7.88
2023-03-15T16:43:34.705Z,10.02
2023-03-15T16:46:14.036Z,8.35
2023-03-15T16:48:46.772Z,5.05
2023-03-15T16:51:19.190Z,5.90
2023-03-15T16:53:52.665Z,5.65
2023-03-15T16:56:30.479Z,7.22
2023-03-15T16:59:04.861Z,7.20
2023-03-15T17:01:37.682Z,4.97
2023-03-15T17:04:11.418Z,5.17
2023-03-15T17:06:48.542Z,6.00
2023-03-15T17:09:23.451Z,9.20
2023-03-15T17:11:56.378Z,5.82
2023-03-15T17:14:34.780Z,6.95
2023-03-15T17:17:08.648Z,10.77
2023-03-15T17:19:41.370Z,6.72
2023-03-15T17:22:13.995Z,10.10
2023-03-15T17:24:47.315Z,7.13
2023-03-15T17:27:27.408Z,11.90
2023-03-15T17:29:59.802Z,8.98
2023-03-15T17:32:32.137Z,10.60
2023-03-15T17:35:04.567Z,10.90
2023-03-15T17:37:38.760Z,12.30
2023-03-15T17:40:23.365Z,8.52
2023-03-15T17:42:58.252Z,4.95
2023-03-15T17:45:34.743Z,5.25
2023-03-15T17:48:07.330Z,6.78
2023-03-15T17:50:44.428Z,5.30
2023-03-15T17:53:18.894Z,8.75
2023-03-15T17:55:53.843Z,7.22
2023-03-15T17:58:27.469Z,6.90
2023-03-15T18:01:00.149Z,6.43
2023-03-15T18:03:32.432Z,8.93
2023-03-15T18:06:05.453Z,9.65
2023-03-15T18:08:37.659Z,11.45
2023-03-15T18:11:22.389Z,4.93
2023-03-15T18:13:55.273Z,10.23
2023-03-15T18:16:27.433Z,10.65
2023-03-15T18:18:59.648Z,6.47
2023-03-15T18:21:32.421Z,8.02
2023-03-15T18:24:05.101Z,9.93
2023-03-15T18:26:37.281Z,7.78
2023-03-15T18:29:09.286Z,7.10
2023-03-15T18:31:43.308Z,13.02
2023-03-15T18:34:17.268Z,11.93
2023-03-15T18:36:50.285Z,11.10
2023-03-15T18:39:25.371Z,10.93
2023-03-15T18:41:57.538Z,6.03
2023-03-15T18:44:29.839Z,8.00
2023-03-15T18:47:02.531Z,7.20
2023-03-15T18:49:35.653Z,9.63
2023-03-15T18:52:07.857Z,9.20
2023-03-15T18:54:40.042Z,7.30
2023-03-15T18:57:12.313Z,8.45
2023-03-15T18:59:44.394Z,7.47
2023-03-15T19:02:16.635Z,9.57
2023-03-15T19:04:48.657Z,8.70
2023-03-15T19:07:20.711Z,11.43
2023-03-15T19:09:52.725Z,7.93
2023-03-15T19:12:25.198Z,13.32
2023-03-15T19:14:57.451Z,12.45
2023-03-15T19:17:29.655Z,10.40
2023-03-15T19:20:02.123Z,12.13
2023-03-15T19:22:34.672Z,13.25
2023-03-15T19:25:08.707Z,18.40
2023-03-15T19:27:42.891Z,15.63
2023-03-15T19:30:18.046Z,14.70
2023-03-15T19:32:51.227Z,13.10
2023-03-15T19:35:23.642Z,14.93
2023-03-15T19:37:57.190Z,15.18
2023-03-15T19:43:01.857Z,17.10
2023-03-15T19:45:33.934Z,11.07
2023-03-15T19:48:06.267Z,13.98
2023-03-15T19:50:38.535Z,17.25
2023-03-15T19:53:12.248Z,11.00
2023-03-15T19:55:44.383Z,10.65
2023-03-15T19:58:17.760Z,10.90
2023-03-15T20:00:52.618Z,10.15
2023-03-15T20:03:25.583Z,20.23
2023-03-15T20:06:03.136Z,17.30
2023-03-15T20:08:35.480Z,15.95
2023-03-15T20:11:08.633Z,11.38
2023-03-15T20:13:41.026Z,15.70
2023-03-15T20:16:13.504Z,12.68
2023-03-15T20:18:46.948Z,13.48
2023-03-15T20:21:19.921Z,9.70
2023-03-15T20:23:52.588Z,16.55
2023-03-15T20:26:26.877Z,10.70
2023-03-15T20:28:59.276Z,8.52
2023-03-15T20:31:31.612Z,9.77
2023-03-15T20:34:07.858Z,11.40
2023-03-15T20:36:40.486Z,14.43
2023-03-15T20:39:13.131Z,22.73
2023-03-15T20:41:45.875Z,14.95
2023-03-15T20:44:19.652Z,10.63
2023-03-15T20:46:55.074Z,6.85
2023-03-15T20:49:29.356Z,9.65
2023-03-15T20:52:02.225Z,7.60
2023-03-15T20:54:34.402Z,19.15
2023-03-15T20:57:07.350Z,25.70
2023-03-15T20:59:40.278Z,45.33
2023-03-15T21:02:12.743Z,46.80
2023-03-15T21:04:44.869Z,54.33
2023-03-15T21:07:17.554Z,40.78
2023-03-15T21:09:50.007Z,114.33
2023-03-15T21:12:22.428Z,40.30
2023-03-15T21:14:54.518Z,21.48
2023-03-15T21:17:26.524Z,21.30
2023-03-15T21:19:58.679Z,20.13
2023-03-15T21:22:30.921Z,16.05
2023-03-15T21:25:03.704Z,20.75
2023-03-15T21:27:35.883Z,59.60
2023-03-15T21:30:08.894Z,41.10
2023-03-15T21:32:42.410Z,33.38
2023-03-15T21:35:14.715Z,34.13
2023-03-15T21:37:46.833Z,39.58
2023-03-15T21:40:18.868Z,80.40
2023-03-15T21:42:51.000Z,34.83
2023-03-15T21:45:23.256Z,32.67
2023-03-15T21:47:55.380Z,76.43
2023-03-15T21:50:27.677Z,78.25
2023-03-15T21:52:59.958Z,54.28
2023-03-15T21:55:33.775Z,51.58
2023-03-15T21:58:06.439Z,23.40
2023-03-15T22:00:38.723Z,22.00
2023-03-15T22:03:13.577Z,24.42
2023-03-15T22:05:46.605Z,23.25
2023-03-15T22:08:19.188Z,16.33
2023-03-15T22:10:55.222Z,31.40
2023-03-15T22:13:27.414Z,23.95
2023-03-15T22:15:59.646Z,22.67
2023-03-15T22:18:32.224Z,21.42
2023-03-15T22:21:04.723Z,22.50
2023-03-15T22:23:37.149Z,19.70
2023-03-15T22:26:09.911Z,21.67
2023-03-15T22:28:42.594Z,23.42
2023-03-15T22:31:14.840Z,25.50
2023-03-15T22:33:47.238Z,37.03
2023-03-15T22:36:19.253Z,68.82
2023-03-15T22:38:52.292Z,53.30
2023-03-15T22:41:24.483Z,43.20
2023-03-15T22:43:56.537Z,43.53
2023-03-15T22:46:34.875Z,39.50
2023-03-15T22:49:07.099Z,29.60
2023-03-15T22:51:41.144Z,20.63
2023-03-15T22:54:13.239Z,21.55
2023-03-15T22:56:45.584Z,27.73
2023-03-15T22:59:18.067Z,15.80
2023-03-15T23:01:50.370Z,18.77
2023-03-15T23:04:22.583Z,21.90
2023-03-15T23:06:55.164Z,20.23
2023-03-15T23:09:27.186Z,16.88
2023-03-15T23:11:59.755Z,18.25
2023-03-15T23:14:32.145Z,18.77
2023-03-15T23:17:04.588Z,19.85
2023-03-15T23:19:36.690Z,19.55
2023-03-15T23:22:09.201Z,18.38
2023-03-15T23:24:41.241Z,18.13
2023-03-15T23:27:13.325Z,17.15
2023-03-15T23:29:54.072Z,18.00
2023-03-15T23:32:27.784Z,14.82
2023-03-15T23:35:18.307Z,17.90
2023-03-15T23:37:50.429Z,19.10
2023-03-15T23:40:22.940Z,22.02
2023-03-15T23:42:59.322Z,22.20
2023-03-15T23:45:49.724Z,20.58
2023-03-15T23:48:22.359Z,24.73
2023-03-15T23:50:55.900Z,22.17
2023-03-15T23:53:28.037Z,24.20
2023-03-15T23:56:00.144Z,21.50
2023-03-15T23:58:32.481Z,22.77
